Time;durP1;ratioP1;P1;durP2;ratioP2;P2;SDS_P1;SDS_P2;PMS_P1;PMS_P2;Temp;Humidity;BMP_temperature;BMP_pressure;BME280_temperature;BME280_humidity;BME280_pressure;Samples;Min_cycle;Max_cycle;Signal;HPM_P1;HPM_P2
2021/09/11 00:01:30;;;;;;;0.47;0.47;;;24.30;63.00;;;;;;5125189;28;20593;-36
2021/09/11 00:03:56;;;;;;;0.80;0.60;;;24.30;63.10;;;;;;5125132;28;20335;-36
2021/09/11 00:06:23;;;;;;;0.77;0.70;;;24.30;63.20;;;;;;5124805;28;20035;-36
2021/09/11 00:08:49;;;;;;;0.68;0.68;;;24.30;63.30;;;;;;5125026;28;20032;-36
2021/09/11 00:11:16;;;;;;;0.80;0.60;;;24.30;63.20;;;;;;5125138;28;20507;-36
2021/09/11 00:13:42;;;;;;;1.25;0.80;;;24.30;63.20;;;;;;5123629;28;20069;-36
2021/09/11 00:16:08;;;;;;;0.90;0.70;;;24.30;63.30;;;;;;5124600;28;20099;-36
2021/09/11 00:18:34;;;;;;;1.23;0.70;;;24.30;63.40;;;;;;5125068;28;20049;-36
2021/09/11 00:21:00;;;;;;;1.20;0.80;;;24.30;63.50;;;;;;5125024;27;20030;-36
2021/09/11 00:23:26;;;;;;;0.98;0.70;;;24.30;63.70;;;;;;5124711;28;20031;-36
2021/09/11 00:25:53;;;;;;;1.48;1.00;;;24.30;63.80;;;;;;5124411;28;20028;-36
2021/09/11 00:28:19;;;;;;;1.20;0.77;;;24.30;64.00;;;;;;5123591;28;20035;-36
2021/09/11 00:30:45;;;;;;;1.08;0.80;;;24.40;64.00;;;;;;5124722;28;20257;-37
2021/09/11 00:33:11;;;;;;;1.10;0.85;;;24.30;63.90;;;;;;5124673;28;20039;-36
2021/09/11 00:35:37;;;;;;;0.88;0.80;;;24.40;64.00;;;;;;5124155;28;20114;-36
2021/09/11 00:38:03;;;;;;;1.60;0.85;;;24.30;64.00;;;;;;5124452;28;20032;-36
2021/09/11 00:40:29;;;;;;;0.90;0.70;;;24.30;64.00;;;;;;5124557;28;20118;-36
2021/09/11 00:42:56;;;;;;;1.58;0.90;;;24.30;64.10;;;;;;5124364;28;20028;-36
2021/09/11 00:45:23;;;;;;;0.68;0.68;;;24.30;64.00;;;;;;5124155;28;20049;-36
2021/09/11 00:47:49;;;;;;;0.98;0.88;;;24.30;64.10;;;;;;5123808;28;20101;-36
2021/09/11 00:50:15;;;;;;;1.10;1.00;;;24.30;64.20;;;;;;5124081;28;20023;-36
2021/09/11 00:52:42;;;;;;;2.05;1.02;;;24.30;64.20;;;;;;5124061;28;20043;-36
2021/09/11 00:55:09;;;;;;;1.17;1.08;;;24.30;64.30;;;;;;5124405;28;20047;-38
2021/09/11 00:57:36;;;;;;;1.17;1.08;;;24.30;64.40;;;;;;5122459;28;20062;-36
2021/09/11 01:00:04;;;;;;;1.27;1.17;;;24.30;64.60;;;;;;5124132;28;20051;-36
2021/09/11 01:02:30;;;;;;;2.58;1.20;;;24.30;64.80;;;;;;5124226;28;20031;-36
2021/09/11 01:04:56;;;;;;;2.33;1.17;;;24.30;65.00;;;;;;5123965;28;20120;-36
2021/09/11 01:07:24;;;;;;;1.60;1.42;;;24.30;65.20;;;;;;5123782;28;20111;-36
2021/09/11 01:09:51;;;;;;;1.80;1.38;;;24.30;65.20;;;;;;5123914;28;20028;-36
2021/09/11 01:12:17;;;;;;;1.30;1.10;;;24.30;65.00;;;;;;5123677;28;20023;-36
2021/09/11 01:14:43;;;;;;;1.15;1.00;;;24.30;64.70;;;;;;5123747;28;20270;-36
2021/09/11 01:17:18;;;;;;;1.75;1.30;;;24.30;64.60;;;;;;5123616;28;20063;-36
2021/09/11 01:19:44;;;;;;;1.30;1.20;;;24.30;64.60;;;;;;5123740;28;20023;-36
2021/09/11 01:22:14;;;;;;;1.10;1.00;;;24.30;64.60;;;;;;5122653;28;20028;-36
2021/09/11 01:25:00;;;;;;;1.52;1.10;;;24.30;64.40;;;;;;5123568;28;20027;-36
2021/09/11 01:27:27;;;;;;;1.20;1.10;;;24.30;64.50;;;;;;5123081;28;20113;-37
2021/09/11 01:29:57;;;;;;;1.75;1.30;;;24.30;64.50;;;;;;5123729;28;20035;-36
2021/09/11 01:32:23;;;;;;;1.63;1.45;;;24.20;64.60;;;;;;5123712;28;20054;-36
2021/09/11 01:34:50;;;;;;;1.97;1.43;;;24.30;64.80;;;;;;5123512;28;20027;-36
2021/09/11 01:37:17;;;;;;;2.15;1.65;;;24.20;65.00;;;;;;5123295;28;20040;-36
2021/09/11 01:39:47;;;;;;;;;;;24.20;64.70;;;;;;5123807;28;20028;-36
2021/09/11 01:42:18;;;;;;;2.50;1.30;;;24.30;64.60;;;;;;5123494;28;20474;-36
2021/09/11 01:44:55;;;;;;;1.75;1.50;;;24.20;64.60;;;;;;5122213;28;20032;-37
2021/09/11 01:47:21;;;;;;;1.60;1.50;;;24.20;64.50;;;;;;5123013;28;20051;-37
2021/09/11 01:49:49;;;;;;;1.70;1.60;;;24.20;64.50;;;;;;5123227;28;20061;-37
2021/09/11 01:52:16;;;;;;;2.22;1.75;;;24.20;65.40;;;;;;5123569;28;20031;-36
2021/09/11 01:54:42;;;;;;;2.00;1.80;;;24.20;64.60;;;;;;5123251;28;20429;-36
2021/09/11 01:57:11;;;;;;;1.83;1.53;;;24.10;64.50;;;;;;5123171;28;20030;-36
2021/09/11 01:59:38;;;;;;;1.48;1.23;;;24.20;64.50;;;;;;5121986;28;20032;-36
2021/09/11 02:02:04;;;;;;;2.83;1.30;;;24.20;64.60;;;;;;5123274;28;20516;-37
2021/09/11 02:04:31;;;;;;;1.73;1.40;;;24.20;64.60;;;;;;5123073;28;20057;-36
2021/09/11 02:06:57;;;;;;;1.95;1.38;;;24.10;64.60;;;;;;5123046;28;20042;-36
2021/09/11 02:09:24;;;;;;;1.58;1.48;;;24.10;64.60;;;;;;5123275;28;20036;-36
2021/09/11 02:11:50;;;;;;;1.30;1.20;;;24.10;64.50;;;;;;5121818;28;20115;-36
2021/09/11 02:14:17;;;;;;;1.67;1.40;;;24.10;64.30;;;;;;5123254;28;20488;-37
2021/09/11 02:16:43;;;;;;;1.52;1.42;;;24.10;64.30;;;;;;5123349;28;20055;-36
2021/09/11 02:19:09;;;;;;;2.00;1.30;;;24.10;64.20;;;;;;5122863;28;20039;-36
2021/09/11 02:21:35;;;;;;;1.88;1.38;;;24.10;64.10;;;;;;5123417;28;20086;-36
2021/09/11 02:24:01;;;;;;;2.83;1.52;;;24.10;64.00;;;;;;5123026;28;20028;-36
2021/09/11 02:26:28;;;;;;;1.58;1.35;;;24.10;63.90;;;;;;5123095;28;20031;-37
2021/09/11 02:28:54;;;;;;;1.80;1.27;;;24.00;63.70;;;;;;5122961;28;20043;-36
2021/09/11 02:31:20;;;;;;;1.20;1.10;;;24.00;63.90;;;;;;5123087;28;20023;-36
2021/09/11 02:33:49;;;;;;;1.55;1.30;;;24.00;63.90;;;;;;5123138;28;20031;-36
2021/09/11 02:36:15;;;;;;;2.63;1.40;;;24.00;63.90;;;;;;5123031;28;20016;-36
2021/09/11 02:38:41;;;;;;;1.73;1.42;;;24.00;63.90;;;;;;5122768;28;20081;-37
2021/09/11 02:41:08;;;;;;;1.90;1.50;;;24.00;63.90;;;;;;5123104;28;20662;-36
2021/09/11 02:43:34;;;;;;;2.25;1.40;;;24.00;63.80;;;;;;5123060;28;20271;-36
2021/09/11 02:46:02;;;;;;;1.63;1.40;;;24.00;64.00;;;;;;5122774;28;20061;-37
2021/09/11 02:48:28;;;;;;;1.85;1.25;;;24.00;64.10;;;;;;5122807;28;20067;-36
2021/09/11 02:50:54;;;;;;;1.90;1.30;;;23.90;63.80;;;;;;5124918;28;20380;-37
2021/09/11 02:53:20;;;;;;;1.65;1.40;;;23.90;63.80;;;;;;5126658;28;20051;-36
2021/09/11 02:55:47;;;;;;;1.58;1.30;;;23.90;63.80;;;;;;5126687;28;20050;-36
2021/09/11 02:58:13;;;;;;;1.80;1.40;;;23.90;63.80;;;;;;5126339;27;20032;-36
2021/09/11 03:00:39;;;;;;;1.63;1.13;;;23.90;63.80;;;;;;5126578;28;20084;-36
2021/09/11 03:03:05;;;;;;;4.15;1.60;;;23.90;63.80;;;;;;5126760;28;20059;-37
2021/09/11 03:05:31;;;;;;;1.50;1.40;;;23.90;63.80;;;;;;5126492;28;20028;-36
2021/09/11 03:07:57;;;;;;;1.20;1.10;;;23.90;63.70;;;;;;5126255;28;20089;-36
2021/09/11 03:10:24;;;;;;;1.95;1.27;;;23.80;63.80;;;;;;5126427;28;20031;-36
2021/09/11 03:12:50;;;;;;;1.43;1.30;;;23.90;63.90;;;;;;5126485;28;20027;-36
2021/09/11 03:15:17;;;;;;;1.52;1.30;;;23.90;63.90;;;;;;5126247;28;20328;-36
2021/09/11 03:17:43;;;;;;;1.27;1.10;;;23.80;63.80;;;;;;5126557;28;20018;-36
2021/09/11 03:20:09;;;;;;;1.42;1.33;;;23.80;63.90;;;;;;5125975;28;20035;-36
2021/09/11 03:22:36;;;;;;;1.33;1.23;;;23.80;63.90;;;;;;5126180;28;20024;-36
2021/09/11 03:25:03;;;;;;;2.33;1.10;;;23.80;63.90;;;;;;5126136;28;20489;-37
2021/09/11 03:27:29;;;;;;;1.40;1.25;;;23.80;63.90;;;;;;5126212;27;20280;-36
2021/09/11 03:29:55;;;;;;;1.80;1.40;;;23.70;63.90;;;;;;5126111;28;20027;-36
2021/09/11 03:32:21;;;;;;;1.90;1.40;;;23.70;63.90;;;;;;5117728;28;20071;-36
2021/09/11 03:34:47;;;;;;;1.40;1.30;;;23.70;63.90;;;;;;5105464;28;20036;-36
2021/09/11 03:37:13;;;;;;;2.67;1.50;;;23.70;64.00;;;;;;5124479;28;20027;-36
2021/09/11 03:39:40;;;;;;;1.98;1.23;;;23.70;64.10;;;;;;5125612;28;20035;-36
2021/09/11 03:42:06;;;;;;;1.60;1.17;;;23.70;64.10;;;;;;5125981;28;20020;-36
2021/09/11 03:44:32;;;;;;;1.40;1.30;;;23.70;64.10;;;;;;5125918;28;20028;-36
2021/09/11 03:46:58;;;;;;;1.80;1.10;;;23.70;64.20;;;;;;5125564;28;20235;-36
2021/09/11 03:49:24;;;;;;;3.42;1.40;;;23.70;64.10;;;;;;5124054;28;20095;-36
2021/09/11 03:51:50;;;;;;;1.48;1.20;;;23.60;64.20;;;;;;5125956;28;20053;-36
2021/09/11 03:54:16;;;;;;;1.67;1.40;;;23.60;64.10;;;;;;5125477;28;20027;-36
2021/09/11 03:56:43;;;;;;;1.80;1.30;;;23.60;64.20;;;;;;5125723;28;20107;-36
2021/09/11 03:59:09;;;;;;;2.28;1.20;;;23.60;64.20;;;;;;5125328;28;20027;-36
2021/09/11 04:01:35;;;;;;;2.60;1.50;;;23.60;64.20;;;;;;5125213;28;20114;-36
2021/09/11 04:04:01;;;;;;;1.70;1.30;;;23.60;64.30;;;;;;5125324;28;20031;-36
2021/09/11 04:06:27;;;;;;;1.60;1.23;;;23.60;64.30;;;;;;5125452;28;20034;-36
2021/09/11 04:08:53;;;;;;;1.60;1.25;;;23.50;64.30;;;;;;5124946;28;20046;-36
2021/09/11 04:11:19;;;;;;;1.23;1.00;;;23.50;64.30;;;;;;5125483;28;20126;-36
2021/09/11 04:13:46;;;;;;;1.63;1.42;;;23.50;64.30;;;;;;5125339;28;20586;-36
2021/09/11 04:16:12;;;;;;;1.40;1.20;;;23.50;64.40;;;;;;5125270;28;20027;-36
2021/09/11 04:18:38;;;;;;;2.75;1.40;;;23.50;64.40;;;;;;5125132;28;20059;-36
2021/09/11 04:21:04;;;;;;;2.85;1.42;;;23.50;64.40;;;;;;5125133;28;20036;-36
2021/09/11 04:23:30;;;;;;;1.65;1.33;;;23.50;64.40;;;;;;5125108;28;20023;-36
2021/09/11 04:25:56;;;;;;;1.88;1.60;;;23.50;64.50;;;;;;5125107;28;20035;-36
2021/09/11 04:28:23;;;;;;;1.65;1.42;;;23.50;64.50;;;;;;5123563;28;20634;-36
2021/09/11 04:30:49;;;;;;;1.90;1.50;;;23.40;64.50;;;;;;5124803;28;20023;-37
2021/09/11 04:33:15;;;;;;;1.60;1.40;;;23.40;64.60;;;;;;5124838;28;20031;-36
2021/09/11 04:35:41;;;;;;;1.38;1.23;;;23.40;64.60;;;;;;5124778;28;20046;-36
2021/09/11 04:38:07;;;;;;;1.48;1.38;;;23.40;64.60;;;;;;5123472;28;20202;-36
2021/09/11 04:40:33;;;;;;;2.10;1.50;;;23.40;64.70;;;;;;5124587;28;20048;-36
2021/09/11 04:43:00;;;;;;;1.50;1.40;;;23.30;64.60;;;;;;5124903;28;20035;-37
2021/09/11 04:45:26;;;;;;;1.70;1.45;;;23.30;64.60;;;;;;5124829;28;20034;-36
2021/09/11 04:47:52;;;;;;;1.52;1.20;;;23.30;64.60;;;;;;5124384;28;20125;-36
2021/09/11 04:50:18;;;;;;;1.63;1.40;;;23.30;64.60;;;;;;5124457;28;20106;-36
2021/09/11 04:52:45;;;;;;;1.70;1.33;;;23.30;64.70;;;;;;5124724;28;20047;-36
2021/09/11 04:55:11;;;;;;;1.50;1.40;;;23.30;64.70;;;;;;5124405;28;20523;-37
2021/09/11 04:57:37;;;;;;;1.25;1.05;;;23.30;64.70;;;;;;5124361;28;20252;-36
2021/09/11 05:00:04;;;;;;;3.50;1.40;;;23.30;64.80;;;;;;5124042;27;20047;-36
2021/09/11 05:02:30;;;;;;;1.52;1.40;;;23.30;64.90;;;;;;5124335;28;20016;-36
2021/09/11 05:04:56;;;;;;;2.53;1.63;;;23.20;64.80;;;;;;5124064;28;20050;-36
2021/09/11 05:07:23;;;;;;;3.30;1.15;;;23.20;64.90;;;;;;5124373;28;20029;-37
2021/09/11 05:09:49;;;;;;;1.63;1.40;;;23.20;64.90;;;;;;5124108;28;20024;-36
2021/09/11 05:12:15;;;;;;;1.40;1.30;;;23.20;64.90;;;;;;5124131;28;20472;-36
2021/09/11 05:14:41;;;;;;;1.92;1.50;;;23.20;64.90;;;;;;5123669;28;20066;-36
2021/09/11 05:17:07;;;;;;;1.63;1.52;;;23.20;65.00;;;;;;5124201;28;20019;-36
2021/09/11 05:19:33;;;;;;;1.90;1.30;;;23.20;65.00;;;;;;5123710;28;20027;-37
2021/09/11 05:22:00;;;;;;;1.70;1.10;;;23.20;65.10;;;;;;5124242;28;20032;-36
2021/09/11 05:24:26;;;;;;;2.78;1.38;;;23.20;65.10;;;;;;5123933;28;20024;-36
2021/09/11 05:26:52;;;;;;;1.30;1.20;;;23.10;65.80;;;;;;5123772;28;20494;-36
2021/09/11 05:29:18;;;;;;;2.88;1.50;;;23.10;65.10;;;;;;5123993;28;20027;-36
2021/09/11 05:31:44;;;;;;;1.48;1.38;;;23.10;65.10;;;;;;5123706;28;20087;-36
2021/09/11 05:34:10;;;;;;;1.45;1.35;;;23.10;65.20;;;;;;5123606;28;20816;-36
2021/09/11 05:36:36;;;;;;;1.40;1.30;;;23.10;65.20;;;;;;5123837;28;20023;-36
2021/09/11 05:39:03;;;;;;;1.85;1.20;;;23.10;65.20;;;;;;5123794;28;20024;-36
2021/09/11 05:41:29;;;;;;;1.63;1.40;;;23.10;65.30;;;;;;5123441;28;20731;-36
2021/09/11 05:43:55;;;;;;;1.30;1.20;;;23.00;65.30;;;;;;5123782;28;20019;-36
2021/09/11 05:46:21;;;;;;;1.90;1.25;;;23.00;65.30;;;;;;5123622;28;20056;-36
2021/09/11 05:48:47;;;;;;;1.75;1.48;;;23.00;65.30;;;;;;5123520;28;20040;-37
2021/09/11 05:51:14;;;;;;;1.55;1.27;;;23.00;65.30;;;;;;5123415;28;20031;-36
2021/09/11 05:53:40;;;;;;;1.50;1.40;;;23.00;65.30;;;;;;5123522;28;20053;-36
2021/09/11 05:56:06;;;;;;;1.40;1.30;;;23.00;65.40;;;;;;5123712;28;20019;-36
2021/09/11 05:58:32;;;;;;;1.35;1.25;;;23.00;65.40;;;;;;5123430;28;20388;-36
2021/09/11 06:00:58;;;;;;;2.20;1.40;;;23.00;65.50;;;;;;5116224;28;20036;-36
2021/09/11 06:03:26;;;;;;;1.75;1.60;;;22.90;65.50;;;;;;5103031;28;20024;-36
2021/09/11 06:05:52;;;;;;;2.40;1.60;;;22.90;65.40;;;;;;5102980;28;20123;-36
2021/09/11 06:08:18;;;;;;;2.47;1.33;;;22.90;65.50;;;;;;5103104;28;20032;-37
2021/09/11 06:10:44;;;;;;;2.17;1.40;;;22.90;65.60;;;;;;5103213;28;20054;-36
2021/09/11 06:13:10;;;;;;;2.00;1.60;;;22.90;65.60;;;;;;5103051;28;20027;-36
2021/09/11 06:15:37;;;;;;;1.38;1.27;;;22.90;65.70;;;;;;5103139;28;20028;-36
2021/09/11 06:18:03;;;;;;;1.30;1.15;;;22.90;65.70;;;;;;5102456;28;20020;-36
2021/09/11 06:20:29;;;;;;;4.28;1.42;;;22.80;65.70;;;;;;5103110;28;20020;-36
2021/09/11 06:22:55;;;;;;;1.55;1.20;;;22.80;65.70;;;;;;5105732;28;20028;-36
2021/09/11 06:25:21;;;;;;;2.22;1.50;;;22.80;65.70;;;;;;5125914;28;20481;-36
2021/09/11 06:27:54;;;;;;;2.20;1.60;;;22.80;65.80;;;;;;5127074;28;20028;-36
2021/09/11 06:30:20;;;;;;;2.20;1.50;;;22.80;65.80;;;;;;5127142;28;20077;-36
2021/09/11 06:32:46;;;;;;;1.35;1.20;;;22.80;65.80;;;;;;5127099;28;20090;-36
2021/09/11 06:35:12;;;;;;;1.98;1.70;;;22.80;65.80;;;;;;5127333;28;20586;-36
2021/09/11 06:37:38;;;;;;;2.78;1.50;;;22.80;65.80;;;;;;5126885;28;20096;-36
2021/09/11 06:40:05;;;;;;;1.42;1.33;;;22.80;65.90;;;;;;5127204;28;20039;-36
2021/09/11 06:42:31;;;;;;;1.40;1.30;;;22.70;65.90;;;;;;5127118;28;20027;-36
2021/09/11 06:44:58;;;;;;;1.75;1.50;;;22.70;65.80;;;;;;5127015;28;20069;-36
2021/09/11 06:47:24;;;;;;;1.60;1.38;;;22.70;65.90;;;;;;5126575;28;20054;-36
2021/09/11 06:49:50;;;;;;;1.67;1.48;;;22.70;66.00;;;;;;5125400;28;20026;-36
2021/09/11 06:52:16;;;;;;;1.25;1.15;;;22.70;66.10;;;;;;5126810;28;20031;-36
2021/09/11 06:54:43;;;;;;;2.17;1.33;;;22.70;66.10;;;;;;5108812;28;20020;-37
2021/09/11 06:57:09;;;;;;;4.07;1.42;;;22.70;66.10;;;;;;5106753;28;20047;-36
2021/09/11 06:59:35;;;;;;;1.45;1.35;;;22.70;66.10;;;;;;5125364;28;20028;-36
2021/09/11 07:02:01;;;;;;;1.70;1.60;;;22.60;66.10;;;;;;5126648;28;20026;-36
2021/09/11 07:04:27;;;;;;;2.70;1.30;;;22.60;66.20;;;;;;5126498;28;20035;-36
2021/09/11 07:06:53;;;;;;;2.83;1.60;;;22.60;66.90;;;;;;5126135;28;20028;-36
2021/09/11 07:09:19;;;;;;;2.03;1.42;;;22.70;66.30;;;;;;5126595;28;20043;-36
2021/09/11 07:11:45;;;;;;;3.08;1.33;;;22.60;66.30;;;;;;5126547;28;20024;-36
2021/09/11 07:14:13;;;;;;;1.67;1.33;;;22.60;66.30;;;;;;5126427;28;20474;-36
2021/09/11 07:16:39;;;;;;;1.30;1.20;;;22.60;66.30;;;;;;5126368;28;20024;-36
2021/09/11 07:19:05;;;;;;;2.50;1.40;;;22.60;66.40;;;;;;5126024;28;20555;-36
2021/09/11 07:21:31;;;;;;;1.55;1.45;;;22.50;66.30;;;;;;5126394;28;20134;-36
2021/09/11 07:23:58;;;;;;;2.83;1.48;;;22.50;66.30;;;;;;5126099;28;20649;-36
2021/09/11 07:26:24;;;;;;;1.95;1.58;;;22.50;66.30;;;;;;5126139;28;20023;-36
2021/09/11 07:28:50;;;;;;;3.10;1.40;;;22.50;66.40;;;;;;5125698;28;20123;-36
2021/09/11 07:31:16;;;;;;;2.47;1.53;;;22.50;66.40;;;;;;5126248;28;20936;-36
2021/09/11 07:33:43;;;;;;;1.60;1.50;;;22.50;66.40;;;;;;5126057;28;20041;-36
2021/09/11 07:36:09;;;;;;;2.05;1.48;;;22.50;66.50;;;;;;5125505;27;20532;-36
2021/09/11 07:38:36;;;;;;;3.33;1.48;;;22.50;66.50;;;;;;5125668;28;20077;-36
2021/09/11 07:41:02;;;;;;;1.70;1.20;;;22.50;66.60;;;;;;5125864;28;20035;-36
2021/09/11 07:43:29;;;;;;;1.70;1.35;;;22.50;66.60;;;;;;5124130;28;20095;-36
2021/09/11 07:45:55;;;;;;;1.55;1.45;;;22.50;66.60;;;;;;5125847;27;20046;-37
2021/09/11 07:48:21;;;;;;;1.98;1.60;;;22.40;66.60;;;;;;5125435;28;20123;-36
2021/09/11 07:50:47;;;;;;;1.40;1.30;;;22.40;66.60;;;;;;5125970;28;20024;-36
2021/09/11 07:53:15;;;;;;;1.55;1.40;;;22.40;66.60;;;;;;5125636;28;20051;-36
2021/09/11 07:55:41;;;;;;;1.75;1.60;;;22.40;66.60;;;;;;5125251;28;20034;-36
2021/09/11 07:58:07;;;;;;;2.25;1.30;;;22.40;66.60;;;;;;5125257;28;20533;-36
2021/09/11 08:00:33;;;;;;;1.77;1.42;;;22.40;66.70;;;;;;5125660;28;20024;-36
2021/09/11 08:03:00;;;;;;;1.70;1.30;;;22.40;66.80;;;;;;5125303;28;20035;-36
2021/09/11 08:05:26;;;;;;;2.28;1.48;;;22.40;66.80;;;;;;5125401;28;20027;-36
2021/09/11 08:07:52;;;;;;;3.95;1.45;;;22.40;66.80;;;;;;5123737;28;20031;-36
2021/09/11 08:10:19;;;;;;;2.15;1.33;;;22.40;66.80;;;;;;5125238;28;20077;-36
2021/09/11 08:12:46;;;;;;;2.30;1.38;;;22.30;67.50;;;;;;5125366;28;20024;-36
2021/09/11 08:15:12;;;;;;;;;;;22.30;66.80;;;;;;5125804;28;20024;-36
2021/09/11 08:17:39;;;;;;;1.98;1.30;;;22.30;67.00;;;;;;5124986;28;19912;-36
2021/09/11 08:20:05;;;;;;;2.17;1.40;;;22.30;66.90;;;;;;5124993;28;20091;-36
2021/09/11 08:22:32;;;;;;;1.40;1.30;;;22.30;66.90;;;;;;5125154;28;20091;-36
2021/09/11 08:24:58;;;;;;;2.22;2.00;;;22.30;67.00;;;;;;5123969;28;20031;-36
2021/09/11 08:27:24;;;;;;;2.63;1.70;;;22.30;67.00;;;;;;5125032;28;20055;-36
2021/09/11 08:29:51;;;;;;;2.33;1.70;;;22.30;67.00;;;;;;5124579;28;20127;-36
2021/09/11 08:32:17;;;;;;;1.85;1.42;;;22.30;67.00;;;;;;5124921;28;20085;-36
2021/09/11 08:34:43;;;;;;;2.50;1.83;;;22.30;67.10;;;;;;5124621;28;20036;-36
2021/09/11 08:37:09;;;;;;;1.90;1.40;;;22.20;67.00;;;;;;5124928;28;20083;-36
2021/09/11 08:39:36;;;;;;;2.58;1.50;;;22.20;67.10;;;;;;5124346;28;20016;-36
2021/09/11 08:42:02;;;;;;;1.70;1.45;;;22.20;67.00;;;;;;5124675;28;20033;-36
2021/09/11 08:44:28;;;;;;;2.50;1.60;;;22.20;67.10;;;;;;5124852;28;20088;-36
2021/09/11 08:46:54;;;;;;;2.00;1.38;;;22.20;67.10;;;;;;5122916;28;20055;-36
2021/09/11 08:49:21;;;;;;;2.57;1.70;;;22.20;67.20;;;;;;5121830;28;20070;-36
2021/09/11 08:51:47;;;;;;;1.95;1.63;;;22.20;67.10;;;;;;5123281;28;20035;-36
2021/09/11 08:54:18;;;;;;;2.70;1.73;;;22.20;67.20;;;;;;5123936;28;20023;-36
2021/09/11 08:56:45;;;;;;;2.78;1.70;;;22.20;67.30;;;;;;5124051;28;20036;-36
2021/09/11 08:59:13;;;;;;;2.50;1.67;;;22.20;67.30;;;;;;5124175;28;20027;-36
2021/09/11 09:01:40;;;;;;;3.72;1.85;;;22.10;67.30;;;;;;5124244;28;20016;-36
2021/09/11 09:04:06;;;;;;;3.43;1.63;;;22.10;67.30;;;;;;5124333;28;20130;-43
2021/09/11 09:06:33;;;;;;;3.17;1.60;;;22.10;67.30;;;;;;5122693;28;20480;-36
2021/09/11 09:09:13;;;;;;;2.30;1.50;;;22.20;67.40;;;;;;5123625;28;20295;-36
2021/09/11 09:11:43;;;;;;;1.80;1.60;;;22.10;67.40;;;;;;5123927;28;20055;-36
2021/09/11 09:14:14;;;;;;;3.80;1.77;;;22.10;67.40;;;;;;5124120;28;20035;-36
2021/09/11 09:16:41;;;;;;;2.67;1.67;;;22.10;67.40;;;;;;5123600;28;20028;-36
2021/09/11 09:19:16;;;;;;;2.58;1.85;;;22.10;67.40;;;;;;5122418;28;20023;-36
2021/09/11 09:21:43;;;;;;;2.00;1.60;;;22.10;67.40;;;;;;5123977;28;20031;-36
2021/09/11 09:24:10;;;;;;;2.60;1.52;;;22.10;67.40;;;;;;5123397;28;20019;-36
2021/09/11 09:26:59;;;;;;;2.45;1.70;;;22.10;67.50;;;;;;5123904;28;20035;-36
2021/09/11 09:29:25;;;;;;;2.60;1.80;;;22.10;67.50;;;;;;5123620;28;20534;-36
2021/09/11 09:31:56;;;;;;;2.85;1.73;;;22.10;67.50;;;;;;5123568;28;20027;-36
2021/09/11 09:34:30;;;;;;;1.98;1.77;;;22.10;67.60;;;;;;5123711;28;20129;-36
2021/09/11 09:36:57;;;;;;;2.78;1.95;;;22.00;67.60;;;;;;5123491;28;20027;-36
2021/09/11 09:39:24;;;;;;;2.63;1.73;;;22.00;67.60;;;;;;5123184;28;20027;-36
2021/09/11 09:41:51;;;;;;;5.32;1.70;;;22.00;67.60;;;;;;5123539;28;20027;-36
2021/09/11 09:44:19;;;;;;;2.25;1.83;;;22.00;67.60;;;;;;5123462;28;20027;-36
2021/09/11 09:46:47;;;;;;;2.45;1.77;;;22.00;67.70;;;;;;5123172;28;20039;-37
2021/09/11 09:49:21;;;;;;;3.20;1.83;;;22.00;67.70;;;;;;5123243;28;20036;-36
2021/09/11 09:51:48;;;;;;;2.47;1.90;;;22.00;67.70;;;;;;5123648;28;20689;-36
2021/09/11 09:54:15;;;;;;;2.28;1.52;;;22.00;67.80;;;;;;5123228;28;20086;-36
2021/09/11 09:56:41;;;;;;;2.63;2.10;;;22.00;67.80;;;;;;5123382;28;20038;-36
2021/09/11 09:59:08;;;;;;;3.65;1.80;;;22.00;67.80;;;;;;5122771;28;20047;-36
2021/09/11 10:01:35;;;;;;;2.20;1.70;;;22.00;67.90;;;;;;5123484;28;20024;-36
2021/09/11 10:04:13;;;;;;;2.53;1.60;;;21.90;67.80;;;;;;5123101;28;20031;-36
2021/09/11 10:06:39;;;;;;;2.35;1.90;;;21.90;67.80;;;;;;5105104;28;20080;-36
2021/09/11 10:09:10;;;;;;;2.47;1.75;;;21.90;67.80;;;;;;5123155;28;20036;-36
2021/09/11 10:11:49;;;;;;;2.72;1.75;;;21.90;67.90;;;;;;5105766;28;20027;-36
2021/09/11 10:14:16;;;;;;;2.30;1.80;;;21.90;67.90;;;;;;5123133;28;20038;-36
2021/09/11 10:16:43;;;;;;;3.23;1.80;;;21.90;67.90;;;;;;5123296;28;20038;-36
2021/09/11 10:19:20;;;;;;;3.00;2.00;;;21.90;68.00;;;;;;5122979;28;20262;-36
2021/09/11 10:21:50;;;;;;;3.13;1.80;;;21.90;68.10;;;;;;5123011;28;20067;-36
2021/09/11 10:24:22;;;;;;;3.17;1.83;;;21.90;68.00;;;;;;5122307;28;20023;-36
2021/09/11 10:26:50;;;;;;;2.38;1.83;;;21.90;68.10;;;;;;5122997;28;20031;-36
2021/09/11 10:29:43;;;;;;;3.13;1.80;;;21.80;68.00;;;;;;5122948;28;20035;-36
2021/09/11 10:32:17;;;;;;;3.92;2.13;;;21.80;68.00;;;;;;5123030;28;20012;-36
2021/09/11 10:34:53;;;;;;;4.50;2.10;;;21.80;68.10;;;;;;5122923;28;20027;-36
2021/09/11 10:37:33;;;;;;;2.20;1.92;;;21.80;68.10;;;;;;5122941;28;20031;-36
2021/09/11 10:40:37;;;;;;;1.95;1.50;;;21.80;68.10;;;;;;5122755;28;20507;-36
2021/09/11 10:43:10;;;;;;;3.70;2.20;;;21.80;68.10;;;;;;5122856;28;20153;-36
2021/09/11 10:45:46;;;;;;;1.80;1.52;;;21.80;68.10;;;;;;5122769;28;20032;-36
2021/09/11 10:48:36;;;;;;;3.22;1.90;;;21.80;68.20;;;;;;5122551;28;20075;-36
2021/09/11 10:51:23;;;;;;;1.95;1.75;;;21.80;68.20;;;;;;5122561;28;20036;-36
2021/09/11 10:54:20;;;;;;;4.22;1.67;;;21.80;68.30;;;;;;5122558;28;20022;-36
2021/09/11 10:56:51;;;;;;;2.70;2.10;;;21.80;68.30;;;;;;5122751;28;20024;-36
2021/09/11 10:59:18;;;;;;;2.35;1.80;;;21.70;68.30;;;;;;5122292;28;20050;-36
2021/09/11 11:01:56;;;;;;;2.55;1.98;;;21.70;68.30;;;;;;5128226;28;20110;-36
2021/09/11 11:04:30;;;;;;;3.60;2.25;;;21.80;68.40;;;;;;5122471;28;20043;-36
2021/09/11 11:06:57;;;;;;;2.17;1.70;;;21.70;68.40;;;;;;5122302;28;20023;-36
2021/09/11 11:09:23;;;;;;;1.75;1.48;;;21.70;68.40;;;;;;5122707;28;20038;-36
2021/09/11 11:11:51;;;;;;;2.17;1.80;;;21.70;68.40;;;;;;5123992;28;20118;-36
2021/09/11 11:14:17;;;;;;;3.10;1.73;;;21.70;68.40;;;;;;5124860;28;20031;-36
2021/09/11 11:16:47;;;;;;;2.65;1.75;;;21.70;68.40;;;;;;5126238;28;20028;-36
2021/09/11 11:19:24;;;;;;;2.72;1.83;;;21.70;68.40;;;;;;5125828;28;20087;-36
2021/09/11 11:22:04;;;;;;;2.38;1.88;;;21.70;68.40;;;;;;5125844;28;20023;-36
2021/09/11 11:24:38;;;;;;;1.92;1.60;;;21.70;68.40;;;;;;5125780;28;20039;-36
2021/09/11 11:27:08;;;;;;;2.50;2.00;;;21.70;68.40;;;;;;5125766;28;20031;-36
2021/09/11 11:29:35;;;;;;;2.63;1.75;;;21.60;68.40;;;;;;5125918;28;20023;-36
2021/09/11 11:32:02;;;;;;;3.50;2.08;;;21.60;68.50;;;;;;5124864;28;20023;-36
2021/09/11 11:34:28;;;;;;;2.17;1.70;;;21.60;68.50;;;;;;5125659;28;20032;-36
2021/09/11 11:36:59;;;;;;;2.10;1.80;;;21.60;68.50;;;;;;5125839;28;20399;-36
2021/09/11 11:39:29;;;;;;;2.08;1.80;;;21.60;68.50;;;;;;5125339;27;20267;-36
2021/09/11 11:42:12;;;;;;;4.20;1.85;;;21.60;68.60;;;;;;5125577;28;20034;-36
2021/09/11 11:44:43;;;;;;;2.05;1.80;;;21.60;68.60;;;;;;5125689;28;20039;-36
2021/09/11 11:47:42;;;;;;;3.72;2.22;;;21.60;68.70;;;;;;5124978;28;20058;-36
2021/09/11 11:50:16;;;;;;;1.88;1.60;;;21.60;68.70;;;;;;5125486;28;20396;-36
2021/09/11 11:52:43;;;;;;;2.42;1.90;;;21.60;68.70;;;;;;5125167;28;20023;-36
2021/09/11 11:55:10;;;;;;;3.08;2.05;;;21.60;68.70;;;;;;5123626;28;20492;-36
2021/09/11 11:57:37;;;;;;;3.13;1.85;;;21.60;68.60;;;;;;5125578;28;20043;-36
2021/09/11 12:00:08;;;;;;;3.07;1.83;;;21.60;68.70;;;;;;5125232;27;20032;-36
2021/09/11 12:02:38;;;;;;;4.03;1.70;;;21.60;68.70;;;;;;5124851;28;20170;-37
2021/09/11 12:05:21;;;;;;;2.55;1.80;;;21.50;68.70;;;;;;5125130;28;20034;-36
2021/09/11 12:08:03;;;;;;;1.52;1.42;;;21.50;68.70;;;;;;5125072;28;20039;-36
2021/09/11 12:10:32;;;;;;;2.50;1.77;;;21.50;68.70;;;;;;5124963;28;20077;-36
2021/09/11 12:13:04;;;;;;;3.67;2.00;;;21.50;68.80;;;;;;5124657;28;20032;-36
2021/09/11 12:15:32;;;;;;;1.90;1.70;;;21.50;68.80;;;;;;5125035;28;20026;-36
2021/09/11 12:18:18;;;;;;;2.90;2.20;;;21.50;68.80;;;;;;5124608;28;20050;-36
2021/09/11 12:20:45;;;;;;;2.72;1.90;;;21.50;68.80;;;;;;5123397;28;20032;-36
2021/09/11 12:23:18;;;;;;;;;;;21.50;68.80;;;;;;5123438;28;20019;-36
2021/09/11 12:25:51;;;;;;;2.17;1.88;;;21.50;68.90;;;;;;5124644;28;19914;-36
2021/09/11 12:28:36;;;;;;;1.88;1.58;;;21.50;68.90;;;;;;5124620;28;20046;-36
2021/09/11 12:31:22;;;;;;;2.85;1.77;;;21.40;68.80;;;;;;5124444;28;20037;-36
2021/09/11 12:33:53;;;;;;;3.15;2.17;;;21.50;68.80;;;;;;5124506;28;20053;-37
2021/09/11 12:36:23;;;;;;;2.45;1.90;;;21.40;68.80;;;;;;5124533;28;20031;-36
2021/09/11 12:38:50;;;;;;;1.92;1.50;;;21.40;68.80;;;;;;5124455;28;20019;-36
2021/09/11 12:41:16;;;;;;;3.30;2.00;;;21.50;68.90;;;;;;5122863;28;20500;-36
2021/09/11 12:43:43;;;;;;;2.23;1.80;;;21.40;68.80;;;;;;5124345;28;20042;-36
2021/09/11 12:46:10;;;;;;;2.53;1.80;;;21.40;68.80;;;;;;5123942;28;20099;-36
2021/09/11 12:48:37;;;;;;;2.58;2.03;;;21.40;68.80;;;;;;5124082;28;20299;-36
2021/09/11 12:51:03;;;;;;;3.17;1.85;;;21.40;68.90;;;;;;5124346;28;20023;-36
2021/09/11 12:53:30;;;;;;;2.15;1.90;;;21.40;68.90;;;;;;5123785;28;20383;-36